Springfield, Missouri
Current Conditions -  °F | °C
As of 4:52 PM on Wednesday 17 Dec 2014 (Local Time) from KSGF Reporting Station
Overcast Overcast  
Wind Chill: 30°   Ceiling: 6000
Heat Index: 34°   Visibility: 10mi
Dew Point: 29°   Wind: 5mph
Humidity: 82%   Direction: 70°ENE
Pressure: 30.21"   Gusts: NA
Location:  37.21°N, 93.29°W
Report Text: KSGF 172252Z 07004KT 10SM OVC060 01/M02 A3021 RMK AO2 RAE01 SLP241 P0000 T00111017
Loading
Personal Weather Stations






























Interactive Weather Map New forecast layout! Learn more

10-Day Weather Forecast

Advertisements
Track Severe Weather on mobile